Wetterdaten: Woche 31.08.15 - 06.09.15 (KW36)
Datum Zeit Temp. A. Feuchte A. Luftdruck Regen Wind Richtung Sonnenschein ET UV Solar Taupunkt Windchill Windben Empfang
31.08.2015 00:00 19,9 C 78 % 1016,1 hPa 0,0 l/m 0,0 km/h (0 Bft) N 0,00 h 0,000 mm 0,0 UV-I 0 W/m 15,9 C 19,9 C 0,0 km/h (0 Bft) 0,00 %
31.08.2015 01:00 19,1 C 81 % 1016,1 hPa 0,0 l/m 0,0 km/h (0 Bft) N 0,00 h 0,000 mm 0,0 UV-I 0 W/m 15,7 C 19,1 C 0,0 km/h (0 Bft) 0,00 %
31.08.2015 02:00 18,3 C 84 % 1016,0 hPa 0,0 l/m 0,0 km/h (0 Bft) N 0,00 h 0,000 mm 0,0 UV-I 0 W/m 15,5 C 18,3 C 0,0 km/h (0 Bft) 0,00 %
31.08.2015 03:00 17,3 C 85 % 1015,6 hPa 0,0 l/m 0,0 km/h (0 Bft) N 0,00 h 0,000 mm 0,0 UV-I 0 W/m 14,8 C 17,3 C 0,0 km/h (0 Bft) 0,00 %
31.08.2015 04:00 16,3 C 86 % 1015,1 hPa 0,0 l/m 0,0 km/h (0 Bft) N 0,00 h 0,000 mm 0,0 UV-I 0 W/m 14,0 C 16,3 C 0,0 km/h (0 Bft) 0,00 %
31.08.2015 05:00 15,6 C 89 % 1015,1 hPa 0,0 l/m 0,0 km/h (0 Bft) N 0,00 h 0,000 mm 0,0 UV-I 0 W/m 13,8 C 15,6 C 0,0 km/h (0 Bft) 0,00 %
31.08.2015 06:00 15,4 C 89 % 1015,2 hPa 0,0 l/m 0,0 km/h (0 Bft) N 0,50 h 0,000 mm 0,0 UV-I 35 W/m 13,5 C 15,4 C 0,0 km/h (0 Bft) 0,00 %
31.08.2015 07:00 19,5 C 70 % 1015,6 hPa 0,0 l/m 0,0 km/h (0 Bft) N 0,58 h 0,000 mm 1,0 UV-I 104 W/m 13,7 C 19,5 C 0,0 km/h (0 Bft) 0,00 %
31.08.2015 08:00 24,6 C 51 % 1015,8 hPa 0,0 l/m 0,0 km/h (0 Bft) N 0,00 h 0,000 mm 1,0 UV-I 161 W/m 13,8 C 24,6 C 0,0 km/h (0 Bft) 0,00 %
31.08.2015 09:00 27,1 C 45 % 1015,6 hPa 0,0 l/m 0,0 km/h (0 Bft) N 0,25 h 0,000 mm 1,1 UV-I 248 W/m 14,1 C 27,1 C 0,0 km/h (0 Bft) 0,00 %
31.08.2015 10:00 28,9 C 41 % 1015,2 hPa 0,0 l/m 0,0 km/h (0 Bft) N 1,00 h 0,000 mm 2,0 UV-I 435 W/m 14,2 C 28,9 C 0,0 km/h (0 Bft) 0,00 %
31.08.2015 11:00 31,4 C 38 % 1014,8 hPa 0,0 l/m 0,6 km/h (0 Bft) W-SW 1,00 h 0,000 mm 2,5 UV-I 621 W/m 15,3 C 31,4 C 1,3 km/h (1 Bft) 0,00 %
31.08.2015 12:00 32,7 C 35 % 1014,2 hPa 0,0 l/m 0,6 km/h (0 Bft) N-NW 1,00 h 0,000 mm 3,0 UV-I 764 W/m 15,3 C 32,7 C 2,0 km/h (1 Bft) 0,00 %
31.08.2015 13:00 33,0 C 33 % 1013,5 hPa 0,0 l/m 1,6 km/h (1 Bft) W 1,00 h 0,000 mm 3,0 UV-I 828 W/m 14,3 C 33,0 C 3,3 km/h (1 Bft) 0,00 %
31.08.2015 14:00 34,5 C 29 % 1012,5 hPa 0,0 l/m 0,6 km/h (0 Bft) NO 1,02 h 0,000 mm 2,5 UV-I 863 W/m 13,7 C 34,5 C 2,3 km/h (1 Bft) 0,00 %
31.08.2015 15:00 34,9 C 26 % 1011,5 hPa 0,0 l/m 1,2 km/h (1 Bft) N-NO 1,00 h 0,000 mm 1,0 UV-I 843 W/m 12,7 C 34,9 C 2,3 km/h (1 Bft) 0,00 %
31.08.2015 16:00 33,1 C 27 % 1010,5 hPa 0,0 l/m 1,0 km/h (0 Bft) O-NO 0,17 h 0,000 mm 1,0 UV-I 201 W/m 10,9 C 33,1 C 2,3 km/h (1 Bft) 0,00 %
31.08.2015 17:00 28,6 C 36 % 1009,8 hPa 0,0 l/m 0,1 km/h (0 Bft) N 0,92 h 0,000 mm 1,0 UV-I 608 W/m 11,9 C 28,6 C 0,3 km/h (0 Bft) 0,00 %
31.08.2015 18:00 32,8 C 25 % 1009,5 hPa 0,0 l/m 0,0 km/h (0 Bft) N 1,00 h 0,000 mm 1,0 UV-I 379 W/m 10,0 C 32,8 C 0,0 km/h (0 Bft) 0,00 %
31.08.2015 19:00 31,0 C 31 % 1009,7 hPa 0,0 l/m 0,0 km/h (0 Bft) N 0,67 h 0,000 mm 0,0 UV-I 58 W/m 11,8 C 31,0 C 0,0 km/h (0 Bft) 0,00 %
31.08.2015 20:00 26,3 C 41 % 1010,0 hPa 0,0 l/m 0,0 km/h (0 Bft) N 0,00 h 0,000 mm 0,0 UV-I 0 W/m 11,9 C 26,3 C 0,0 km/h (0 Bft) 0,00 %
31.08.2015 21:00 24,1 C 50 % 1010,1 hPa 0,0 l/m 0,0 km/h (0 Bft) N 0,00 h 0,000 mm 0,0 UV-I 0 W/m 12,9 C 24,1 C 0,0 km/h (0 Bft) 0,00 %
31.08.2015 22:00 23,3 C 54 % 1010,4 hPa 0,0 l/m 0,0 km/h (0 Bft) N 0,00 h 0,000 mm 0,0 UV-I 0 W/m 13,4 C 23,3 C 0,0 km/h (0 Bft) 0,00 %
31.08.2015 23:00 23,0 C 57 % 1010,8 hPa 0,0 l/m 0,4 km/h (0 Bft) SW 0,00 h 0,000 mm 0,0 UV-I 0 W/m 13,9 C 23,0 C 1,3 km/h (1 Bft) 0,00 %
01.09.2015 00:00 22,4 C 60 % 1011,1 hPa 0,0 l/m 0,1 km/h (0 Bft) N 0,00 h 0,000 mm 0,0 UV-I 0 W/m 14,3 C 22,4 C 0,3 km/h (0 Bft) 0,00 %
01.09.2015 01:00 21,8 C 62 % 1011,3 hPa 0,0 l/m 0,2 km/h (0 Bft) N 0,00 h 0,000 mm 0,0 UV-I 0 W/m 14,3 C 21,8 C 1,3 km/h (1 Bft) 0,00 %
01.09.2015 02:00 21,4 C 62 % 1011,1 hPa 0,0 l/m 0,0 km/h (0 Bft) N 0,00 h 0,000 mm 0,0 UV-I 0 W/m 13,9 C 21,4 C 0,0 km/h (0 Bft) 0,00 %
01.09.2015 03:00 20,2 C 68 % 1011,1 hPa 0,0 l/m 0,0 km/h (0 Bft) N 0,00 h 0,000 mm 0,0 UV-I 0 W/m 14,0 C 20,2 C 0,0 km/h (0 Bft) 0,00 %
01.09.2015 04:00 17,9 C 77 % 1011,5 hPa 0,0 l/m 0,0 km/h (0 Bft) N 0,00 h 0,000 mm 0,0 UV-I 0 W/m 13,8 C 17,9 C 0,0 km/h (0 Bft) 0,00 %
01.09.2015 05:00 18,0 C 76 % 1011,3 hPa 0,0 l/m 0,0 km/h (0 Bft) N 0,00 h 0,000 mm 0,0 UV-I 0 W/m 13,7 C 18,0 C 0,0 km/h (0 Bft) 0,00 %
01.09.2015 06:00 17,2 C 80 % 1010,9 hPa 0,0 l/m 0,0 km/h (0 Bft) N 0,50 h 0,000 mm 0,0 UV-I 30 W/m 13,7 C 17,2 C 0,0 km/h (0 Bft) 0,00 %
01.09.2015 07:00 20,0 C 66 % 1010,8 hPa 0,0 l/m 0,0 km/h (0 Bft) N 0,85 h 0,000 mm 1,0 UV-I 112 W/m 13,5 C 20,0 C 0,0 km/h (0 Bft) 0,00 %
01.09.2015 08:00 25,0 C 51 % 1010,5 hPa 0,0 l/m 0,0 km/h (0 Bft) N 0,83 h 0,000 mm 1,0 UV-I 235 W/m 14,0 C 25,0 C 0,0 km/h (0 Bft) 0,00 %
01.09.2015 09:00 26,5 C 48 % 1010,3 hPa 0,0 l/m 0,0 km/h (0 Bft) N 0,33 h 0,000 mm 1,0 UV-I 256 W/m 14,5 C 26,5 C 0,0 km/h (0 Bft) 0,00 %
01.09.2015 10:00 28,1 C 44 % 1010,3 hPa 0,0 l/m 0,6 km/h (0 Bft) W-NW 0,92 h 0,000 mm 1,9 UV-I 399 W/m 14,7 C 28,1 C 1,7 km/h (1 Bft) 0,00 %
01.09.2015 11:00 31,0 C 33 % 1009,5 hPa 0,0 l/m 0,2 km/h (0 Bft) N-NO 1,00 h 0,000 mm 2,4 UV-I 614 W/m 12,5 C 31,0 C 0,7 km/h (0 Bft) 0,00 %
01.09.2015 12:00 31,4 C 30 % 1008,5 hPa 0,0 l/m 1,6 km/h (1 Bft) NO 1,00 h 0,000 mm 3,0 UV-I 742 W/m 11,4 C 31,4 C 3,0 km/h (1 Bft) 0,00 %
01.09.2015 13:00 31,9 C 27 % 1007,5 hPa 0,0 l/m 2,5 km/h (1 Bft) NO 1,00 h 0,000 mm 3,0 UV-I 801 W/m 10,6 C 31,9 C 4,3 km/h (1 Bft) 0,00 %
01.09.2015 14:00 33,2 C 24 % 1006,6 hPa 0,0 l/m 3,3 km/h (1 Bft) O-SO 1,00 h 0,000 mm 2,5 UV-I 839 W/m 9,8 C 33,2 C 5,9 km/h (2 Bft) 0,00 %
01.09.2015 15:00 33,2 C 24 % 1005,6 hPa 0,0 l/m 1,5 km/h (1 Bft) O-NO 1,00 h 0,000 mm 1,0 UV-I 805 W/m 9,6 C 33,2 C 3,6 km/h (1 Bft) 0,00 %
01.09.2015 16:00 32,9 C 25 % 1005,1 hPa 0,0 l/m 0,7 km/h (0 Bft) N-NO 1,00 h 0,000 mm 1,0 UV-I 727 W/m 10,1 C 32,9 C 1,3 km/h (1 Bft) 0,00 %
01.09.2015 17:00 33,5 C 23 % 1004,8 hPa 0,0 l/m 0,6 km/h (0 Bft) O-NO 0,83 h 0,000 mm 1,0 UV-I 533 W/m 9,4 C 33,5 C 1,3 km/h (1 Bft) 0,00 %
01.09.2015 18:00 31,6 C 27 % 1005,0 hPa 0,0 l/m 0,0 km/h (0 Bft) N 0,50 h 0,000 mm 1,0 UV-I 152 W/m 10,4 C 31,6 C 0,0 km/h (0 Bft) 0,00 %
01.09.2015 19:00 28,6 C 35 % 1005,7 hPa 0,0 l/m 4,9 km/h (1 Bft) W 0,00 h 0,000 mm 0,0 UV-I 19 W/m 11,7 C 28,3 C 6,7 km/h (2 Bft) 0,00 %
01.09.2015 20:00 24,9 C 43 % 1008,5 hPa 0,0 l/m 9,7 km/h (2 Bft) W-SW 0,00 h 0,000 mm 0,0 UV-I 0 W/m 11,4 C 24,0 C 13,9 km/h (3 Bft) 0,00 %
01.09.2015 21:00 22,9 C 53 % 1010,9 hPa 0,0 l/m 8,7 km/h (2 Bft) W-SW 0,00 h 0,000 mm 0,0 UV-I 0 W/m 12,7 C 22,0 C 13,2 km/h (3 Bft) 0,00 %
01.09.2015 22:00 20,7 C 63 % 1012,3 hPa 0,0 l/m 7,7 km/h (2 Bft) W-SW 0,00 h 0,000 mm 0,0 UV-I 0 W/m 13,3 C 19,9 C 11,9 km/h (2 Bft) 0,00 %
01.09.2015 23:00 19,9 C 68 % 1013,3 hPa 0,0 l/m 3,2 km/h (1 Bft) W-SW 0,00 h 0,000 mm 0,0 UV-I 0 W/m 13,8 C 19,7 C 5,6 km/h (1 Bft) 0,00 %
02.09.2015 00:00 17,8 C 87 % 1014,1 hPa 0,9 l/m 4,0 km/h (1 Bft) W-SW 0,00 h 0,000 mm 0,0 UV-I 0 W/m 15,5 C 17,3 C 7,3 km/h (2 Bft) 0,00 %
02.09.2015 01:00 16,6 C 96 % 1014,7 hPa 3,0 l/m 0,9 km/h (0 Bft) S 0,00 h 0,000 mm 0,0 UV-I 0 W/m 15,8 C 16,6 C 2,6 km/h (1 Bft) 0,00 %
02.09.2015 02:00 16,1 C 97 % 1014,6 hPa 2,4 l/m 1,2 km/h (1 Bft) NO 0,00 h 0,000 mm 0,0 UV-I 0 W/m 15,6 C 16,1 C 3,7 km/h (1 Bft) 0,00 %
02.09.2015 03:00 15,6 C 98 % 1015,1 hPa 1,5 l/m 1,5 km/h (1 Bft) NW 0,00 h 0,000 mm 0,0 UV-I 0 W/m 15,3 C 15,6 C 3,3 km/h (1 Bft) 0,00 %
02.09.2015 04:00 15,2 C 97 % 1015,1 hPa 0,0 l/m 1,1 km/h (1 Bft) W-SW 0,00 h 0,000 mm 0,0 UV-I 0 W/m 14,8 C 15,2 C 3,3 km/h (1 Bft) 0,00 %
02.09.2015 05:00 14,8 C 96 % 1015,3 hPa 0,0 l/m 1,1 km/h (0 Bft) W-SW 0,00 h 0,000 mm 0,0 UV-I 0 W/m 14,1 C 14,8 C 2,7 km/h (1 Bft) 0,00 %
02.09.2015 06:00 14,5 C 94 % 1015,6 hPa 0,0 l/m 1,0 km/h (0 Bft) NW 0,00 h 0,000 mm 0,0 UV-I 8 W/m 13,6 C 14,5 C 2,7 km/h (1 Bft) 0,00 %
02.09.2015 07:00 14,8 C 92 % 1016,2 hPa 0,0 l/m 1,0 km/h (0 Bft) W-SW 0,00 h 0,000 mm 1,0 UV-I 69 W/m 13,4 C 14,8 C 3,0 km/h (1 Bft) 0,00 %
02.09.2015 08:00 15,4 C 89 % 1016,5 hPa 0,0 l/m 0,3 km/h (0 Bft) W-SW 0,00 h 0,000 mm 1,0 UV-I 126 W/m 13,6 C 15,4 C 0,7 km/h (0 Bft) 0,00 %
02.09.2015 09:00 16,9 C 81 % 1016,7 hPa 0,0 l/m 0,1 km/h (0 Bft) N-NW 0,33 h 0,000 mm 1,0 UV-I 256 W/m 13,6 C 16,9 C 0,7 km/h (0 Bft) 0,00 %
02.09.2015 10:00 18,0 C 73 % 1016,6 hPa 0,0 l/m 0,2 km/h (0 Bft) N 0,42 h 0,000 mm 1,3 UV-I 312 W/m 13,0 C 18,0 C 0,7 km/h (0 Bft) 0,00 %
02.09.2015 11:00 18,6 C 68 % 1016,4 hPa 0,0 l/m 0,7 km/h (0 Bft) O 0,00 h 0,000 mm 1,2 UV-I 262 W/m 12,6 C 18,6 C 2,0 km/h (1 Bft) 0,00 %
02.09.2015 12:00 19,1 C 65 % 1015,9 hPa 0,0 l/m 0,3 km/h (0 Bft) O-SO 0,08 h 0,000 mm 1,2 UV-I 237 W/m 12,4 C 19,1 C 1,7 km/h (1 Bft) 0,00 %
02.09.2015 13:00 18,4 C 67 % 1015,4 hPa 0,0 l/m 1,5 km/h (1 Bft) O 0,08 h 0,000 mm 1,4 UV-I 283 W/m 12,2 C 18,4 C 3,6 km/h (1 Bft) 0,00 %
02.09.2015 14:00 19,3 C 62 % 1014,6 hPa 0,0 l/m 1,4 km/h (1 Bft) O-SO 0,00 h 0,000 mm 1,0 UV-I 231 W/m 11,7 C 19,3 C 3,3 km/h (1 Bft) 0,00 %
02.09.2015 15:00 18,5 C 67 % 1013,9 hPa 0,0 l/m 2,1 km/h (1 Bft) SO 0,00 h 0,000 mm 1,0 UV-I 143 W/m 12,4 C 18,5 C 4,6 km/h (1 Bft) 0,00 %
02.09.2015 16:00 18,0 C 72 % 1014,1 hPa 0,0 l/m 0,4 km/h (0 Bft) SO 0,00 h 0,000 mm 1,0 UV-I 83 W/m 12,9 C 18,0 C 1,3 km/h (1 Bft) 0,00 %
02.09.2015 17:00 16,8 C 84 % 1014,7 hPa 2,4 l/m 0,0 km/h (0 Bft) N 0,00 h 0,000 mm 0,0 UV-I 22 W/m 14,0 C 16,8 C 0,0 km/h (0 Bft) 0,00 %
02.09.2015 18:00 15,1 C 95 % 1014,9 hPa 7,5 l/m 0,4 km/h (0 Bft) O-NO 0,00 h 0,000 mm 0,0 UV-I 6 W/m 14,4 C 15,1 C 0,7 km/h (0 Bft) 0,00 %
02.09.2015 19:00 14,4 C 99 % 1015,2 hPa 0,3 l/m 0,1 km/h (0 Bft) N 0,00 h 0,000 mm 0,0 UV-I 0 W/m 14,2 C 14,4 C 0,7 km/h (0 Bft) 0,00 %
02.09.2015 20:00 14,2 C 99 % 1015,7 hPa 0,0 l/m 0,0 km/h (0 Bft) N 0,00 h 0,000 mm 0,0 UV-I 0 W/m 14,1 C 14,2 C 0,0 km/h (0 Bft) 0,00 %
02.09.2015 21:00 14,0 C 99 % 1016,2 hPa 0,6 l/m 0,0 km/h (0 Bft) N 0,00 h 0,000 mm 0,0 UV-I 0 W/m 13,9 C 14,0 C 0,3 km/h (0 Bft) 0,00 %
02.09.2015 22:00 13,9 C 99 % 1016,1 hPa 0,0 l/m 0,0 km/h (0 Bft) N 0,00 h 0,000 mm 0,0 UV-I 0 W/m 13,7 C 13,9 C 0,0 km/h (0 Bft) 0,00 %
02.09.2015 23:00 13,1 C 99 % 1016,0 hPa 0,0 l/m 0,5 km/h (0 Bft) O 0,00 h 0,000 mm 0,0 UV-I 0 W/m 13,0 C 13,1 C 1,3 km/h (1 Bft) 0,00 %
03.09.2015 00:00 13,0 C 99 % 1016,0 hPa 0,0 l/m 0,3 km/h (0 Bft) O-SO 0,00 h 0,000 mm 0,0 UV-I 0 W/m 12,8 C 13,0 C 1,0 km/h (0 Bft) 0,00 %
03.09.2015 01:00 12,7 C 99 % 1015,5 hPa 0,0 l/m 0,3 km/h (0 Bft) O 0,00 h 0,000 mm 0,0 UV-I 0 W/m 12,6 C 12,7 C 0,7 km/h (0 Bft) 0,00 %
03.09.2015 02:00 12,9 C 99 % 1015,1 hPa 0,0 l/m 0,0 km/h (0 Bft) N 0,00 h 0,000 mm 0,0 UV-I 0 W/m 12,7 C 12,9 C 0,0 km/h (0 Bft) 0,00 %
03.09.2015 03:00 13,1 C 99 % 1014,7 hPa 0,0 l/m 0,1 km/h (0 Bft) N 0,00 h 0,000 mm 0,0 UV-I 0 W/m 13,0 C 13,1 C 1,0 km/h (0 Bft) 0,00 %
03.09.2015 04:00 13,2 C 99 % 1014,5 hPa 0,0 l/m 0,0 km/h (0 Bft) N 0,00 h 0,000 mm 0,0 UV-I 0 W/m 13,1 C 13,2 C 0,3 km/h (0 Bft) 0,00 %
03.09.2015 05:00 13,2 C 99 % 1014,5 hPa 0,0 l/m 0,0 km/h (0 Bft) N 0,00 h 0,000 mm 0,0 UV-I 0 W/m 13,1 C 13,2 C 0,0 km/h (0 Bft) 0,00 %
03.09.2015 06:00 13,0 C 99 % 1014,2 hPa 0,0 l/m 1,2 km/h (1 Bft) O-SO 0,00 h 0,000 mm 0,0 UV-I 11 W/m 12,9 C 13,0 C 3,3 km/h (1 Bft) 0,00 %
03.09.2015 07:00 12,8 C 99 % 1013,9 hPa 0,0 l/m 1,4 km/h (1 Bft) O-SO 0,00 h 0,000 mm 0,0 UV-I 35 W/m 12,6 C 12,8 C 3,3 km/h (1 Bft) 0,00 %
03.09.2015 08:00 12,8 C 98 % 1013,9 hPa 0,3 l/m 4,1 km/h (1 Bft) SO 0,00 h 0,000 mm 1,0 UV-I 93 W/m 12,6 C 12,7 C 7,9 km/h (2 Bft) 0,00 %
03.09.2015 09:00 13,8 C 93 % 1013,6 hPa 0,0 l/m 1,3 km/h (1 Bft) O 0,00 h 0,000 mm 1,0 UV-I 204 W/m 12,7 C 13,7 C 3,3 km/h (1 Bft) 0,00 %
03.09.2015 10:00 15,3 C 82 % 1013,0 hPa 0,0 l/m 2,6 km/h (1 Bft) O-SO 0,67 h 0,000 mm 1,7 UV-I 371 W/m 12,1 C 15,3 C 5,6 km/h (1 Bft) 0,00 %
03.09.2015 11:00 17,0 C 74 % 1012,8 hPa 0,0 l/m 3,0 km/h (1 Bft) O 0,33 h 0,000 mm 1,4 UV-I 345 W/m 12,2 C 17,0 C 5,3 km/h (1 Bft) 0,00 %
03.09.2015 12:00 17,1 C 72 % 1012,4 hPa 0,0 l/m 2,3 km/h (1 Bft) NO 0,00 h 0,000 mm 1,1 UV-I 290 W/m 12,1 C 17,1 C 5,3 km/h (1 Bft) 0,00 %
03.09.2015 13:00 18,2 C 70 % 1012,5 hPa 0,0 l/m 1,2 km/h (1 Bft) NO 0,08 h 0,000 mm 1,3 UV-I 265 W/m 12,6 C 18,2 C 2,3 km/h (1 Bft) 0,00 %
03.09.2015 14:00 18,8 C 67 % 1012,2 hPa 0,0 l/m 0,3 km/h (0 Bft) O-SO 0,00 h 0,000 mm 1,0 UV-I 256 W/m 12,6 C 18,8 C 1,0 km/h (0 Bft) 0,00 %
03.09.2015 15:00 19,0 C 67 % 1012,3 hPa 0,0 l/m 0,0 km/h (0 Bft) N 0,00 h 0,000 mm 1,0 UV-I 178 W/m 12,8 C 19,0 C 0,3 km/h (0 Bft) 0,00 %
03.09.2015 16:00 19,2 C 68 % 1011,6 hPa 0,0 l/m 0,1 km/h (0 Bft) W-NW 0,00 h 0,000 mm 1,0 UV-I 180 W/m 13,1 C 19,2 C 0,3 km/h (0 Bft) 0,00 %
03.09.2015 17:00 17,9 C 76 % 1011,8 hPa 0,0 l/m 0,0 km/h (0 Bft) N-NW 0,00 h 0,000 mm 0,0 UV-I 52 W/m 13,5 C 17,9 C 0,0 km/h (0 Bft) 0,00 %
03.09.2015 18:00 15,9 C 91 % 1012,0 hPa 1,5 l/m 0,7 km/h (0 Bft) W-SW 0,00 h 0,000 mm 0,0 UV-I 28 W/m 14,3 C 15,9 C 1,7 km/h (1 Bft) 0,00 %
03.09.2015 19:00 15,2 C 95 % 1012,1 hPa 0,6 l/m 0,0 km/h (0 Bft) N 0,00 h 0,000 mm 0,0 UV-I 3 W/m 14,4 C 15,2 C 0,0 km/h (0 Bft) 0,00 %
03.09.2015 20:00 15,0 C 97 % 1012,6 hPa 2,1 l/m 1,2 km/h (1 Bft) N-NO 0,00 h 0,000 mm 0,0 UV-I 0 W/m 14,5 C 15,0 C 2,7 km/h (1 Bft) 0,00 %
03.09.2015 21:00 14,3 C 98 % 1013,8 hPa 6,6 l/m 2,2 km/h (1 Bft) W-NW 0,00 h 0,000 mm 0,0 UV-I 0 W/m 14,0 C 14,3 C 5,0 km/h (1 Bft) 0,00 %
03.09.2015 22:00 13,8 C 99 % 1014,7 hPa 3,9 l/m 4,0 km/h (1 Bft) N-NW 0,00 h 0,000 mm 0,0 UV-I 0 W/m 13,6 C 13,4 C 6,9 km/h (2 Bft) 0,00 %
03.09.2015 23:00 13,2 C 99 % 1014,9 hPa 0,9 l/m 1,1 km/h (0 Bft) S 0,00 h 0,000 mm 0,0 UV-I 0 W/m 13,0 C 13,2 C 2,7 km/h (1 Bft) 0,00 %
04.09.2015 00:00 12,7 C 99 % 1015,1 hPa 0,9 l/m 0,9 km/h (0 Bft) W-SW 0,00 h 0,000 mm 0,0 UV-I 0 W/m 12,6 C 12,7 C 2,3 km/h (1 Bft) 0,00 %
04.09.2015 01:00 12,5 C 99 % 1015,4 hPa 1,5 l/m 1,4 km/h (1 Bft) W-SW 0,00 h 0,000 mm 0,0 UV-I 0 W/m 12,3 C 12,5 C 4,0 km/h (1 Bft) 0,00 %
04.09.2015 02:00 12,0 C 98 % 1015,6 hPa 2,4 l/m 1,3 km/h (1 Bft) W-NW 0,00 h 0,000 mm 0,0 UV-I 0 W/m 11,7 C 12,0 C 2,3 km/h (1 Bft) 0,00 %
04.09.2015 03:00 11,8 C 97 % 1015,9 hPa 1,8 l/m 0,8 km/h (0 Bft) W-SW 0,00 h 0,000 mm 0,0 UV-I 0 W/m 11,4 C 11,8 C 2,0 km/h (1 Bft) 0,00 %
04.09.2015 04:00 11,6 C 97 % 1015,9 hPa 0,0 l/m 0,1 km/h (0 Bft) W-NW 0,00 h 0,000 mm 0,0 UV-I 0 W/m 11,1 C 11,6 C 0,3 km/h (0 Bft) 0,00 %
04.09.2015 05:00 11,6 C 97 % 1015,7 hPa 0,0 l/m 0,1 km/h (0 Bft) N 0,00 h 0,000 mm 0,0 UV-I 0 W/m 11,1 C 11,6 C 0,3 km/h (0 Bft) 0,00 %
04.09.2015 06:00 11,6 C 97 % 1015,8 hPa 0,0 l/m 0,0 km/h (0 Bft) N 0,00 h 0,000 mm 0,0 UV-I 2 W/m 11,1 C 11,6 C 0,0 km/h (0 Bft) 0,00 %
04.09.2015 07:00 11,9 C 98 % 1016,1 hPa 0,0 l/m 0,0 km/h (0 Bft) N 0,00 h 0,000 mm 0,0 UV-I 43 W/m 11,6 C 11,9 C 0,0 km/h (0 Bft) 0,00 %
04.09.2015 08:00 13,0 C 99 % 1016,3 hPa 0,0 l/m 0,0 km/h (0 Bft) N 0,00 h 0,000 mm 1,0 UV-I 141 W/m 12,8 C 13,0 C 0,0 km/h (0 Bft) 0,00 %
04.09.2015 09:00 15,0 C 98 % 1016,7 hPa 0,0 l/m 0,2 km/h (0 Bft) W-NW 0,25 h 0,000 mm 1,0 UV-I 230 W/m 14,6 C 15,0 C 1,0 km/h (0 Bft) 0,00 %
04.09.2015 10:00 15,7 C 94 % 1017,1 hPa 0,0 l/m 0,6 km/h (0 Bft) NW 0,25 h 0,000 mm 1,3 UV-I 282 W/m 14,7 C 15,7 C 1,0 km/h (0 Bft) 0,00 %
04.09.2015 11:00 17,9 C 87 % 1017,1 hPa 0,0 l/m 0,9 km/h (0 Bft) W 0,92 h 0,000 mm 2,6 UV-I 620 W/m 15,6 C 17,9 C 1,7 km/h (1 Bft) 0,00 %
04.09.2015 12:00 19,9 C 80 % 1016,4 hPa 0,0 l/m 0,8 km/h (0 Bft) W-NW 0,92 h 0,000 mm 3,0 UV-I 780 W/m 16,4 C 19,9 C 2,3 km/h (1 Bft) 0,00 %
04.09.2015 13:00 20,5 C 71 % 1016,2 hPa 0,0 l/m 0,6 km/h (0 Bft) W 0,33 h 0,000 mm 2,0 UV-I 428 W/m 15,0 C 20,5 C 2,3 km/h (1 Bft) 0,00 %
04.09.2015 14:00 20,5 C 52 % 1015,7 hPa 0,0 l/m 0,1 km/h (0 Bft) O-NO 0,67 h 0,000 mm 2,4 UV-I 687 W/m 10,3 C 20,5 C 0,7 km/h (0 Bft) 0,00 %
04.09.2015 15:00 21,4 C 49 % 1015,0 hPa 0,0 l/m 0,1 km/h (0 Bft) N 0,25 h 0,000 mm 1,3 UV-I 343 W/m 10,4 C 21,4 C 0,7 km/h (0 Bft) 0,00 %
04.09.2015 16:00 20,5 C 51 % 1014,6 hPa 0,0 l/m 0,3 km/h (0 Bft) W-SW 0,33 h 0,000 mm 1,0 UV-I 250 W/m 10,0 C 20,5 C 0,7 km/h (0 Bft) 0,00 %
04.09.2015 17:00 20,3 C 52 % 1014,2 hPa 0,0 l/m 0,0 km/h (0 Bft) N 0,33 h 0,000 mm 1,0 UV-I 167 W/m 9,9 C 20,3 C 0,0 km/h (0 Bft) 0,00 %
04.09.2015 18:00 19,5 C 59 % 1014,2 hPa 0,0 l/m 0,0 km/h (0 Bft) N 0,00 h 0,000 mm 0,0 UV-I 67 W/m 11,2 C 19,5 C 0,0 km/h (0 Bft) 0,00 %
04.09.2015 19:00 17,8 C 73 % 1014,0 hPa 0,0 l/m 0,0 km/h (0 Bft) N 0,00 h 0,000 mm 0,0 UV-I 18 W/m 12,9 C 17,8 C 0,0 km/h (0 Bft) 0,00 %
04.09.2015 20:00 16,5 C 81 % 1014,0 hPa 0,0 l/m 0,0 km/h (0 Bft) N 0,00 h 0,000 mm 0,0 UV-I 0 W/m 13,1 C 16,5 C 0,0 km/h (0 Bft) 0,00 %
04.09.2015 21:00 15,6 C 85 % 1014,0 hPa 0,0 l/m 0,0 km/h (0 Bft) N 0,00 h 0,000 mm 0,0 UV-I 0 W/m 13,1 C 15,6 C 0,0 km/h (0 Bft) 0,00 %
04.09.2015 22:00 15,7 C 86 % 1014,3 hPa 0,0 l/m 0,4 km/h (0 Bft) NW 0,00 h 0,000 mm 0,0 UV-I 0 W/m 13,2 C 15,7 C 0,7 km/h (0 Bft) 0,00 %
04.09.2015 23:00 15,2 C 80 % 1014,2 hPa 0,0 l/m 0,0 km/h (0 Bft) N 0,00 h 0,000 mm 0,0 UV-I 0 W/m 11,8 C 15,2 C 0,3 km/h (0 Bft) 0,00 %
05.09.2015 00:00 14,8 C 82 % 1014,6 hPa 0,3 l/m 0,0 km/h (0 Bft) N 0,00 h 0,000 mm 0,0 UV-I 0 W/m 11,7 C 14,8 C 0,3 km/h (0 Bft) 0,00 %
05.09.2015 01:00 13,5 C 91 % 1014,5 hPa 0,6 l/m 0,0 km/h (0 Bft) N 0,00 h 0,000 mm 0,0 UV-I 0 W/m 12,1 C 13,5 C 0,0 km/h (0 Bft) 0,00 %
05.09.2015 02:00 13,0 C 95 % 1014,3 hPa 0,6 l/m 0,1 km/h (0 Bft) O 0,00 h 0,000 mm 0,0 UV-I 0 W/m 12,2 C 13,0 C 0,3 km/h (0 Bft) 0,00 %
05.09.2015 03:00 12,7 C 97 % 1014,2 hPa 0,0 l/m 0,0 km/h (0 Bft) N 0,00 h 0,000 mm 0,0 UV-I 0 W/m 12,3 C 12,7 C 0,0 km/h (0 Bft) 0,00 %
05.09.2015 04:00 12,4 C 99 % 1013,8 hPa 0,0 l/m 0,0 km/h (0 Bft) N 0,00 h 0,000 mm 0,0 UV-I 0 W/m 12,2 C 12,4 C 0,0 km/h (0 Bft) 0,00 %
05.09.2015 05:00 12,2 C 99 % 1013,5 hPa 0,0 l/m 0,0 km/h (0 Bft) N 0,00 h 0,000 mm 0,0 UV-I 0 W/m 12,1 C 12,2 C 0,0 km/h (0 Bft) 0,00 %
05.09.2015 06:00 12,1 C 99 % 1013,7 hPa 0,3 l/m 0,0 km/h (0 Bft) N 0,00 h 0,000 mm 0,0 UV-I 2 W/m 11,9 C 12,1 C 0,0 km/h (0 Bft) 0,00 %
05.09.2015 07:00 12,6 C 99 % 1014,1 hPa 0,0 l/m 0,0 km/h (0 Bft) N 0,00 h 0,000 mm 0,0 UV-I 26 W/m 12,4 C 12,6 C 0,0 km/h (0 Bft) 0,00 %
05.09.2015 08:00 13,0 C 99 % 1014,1 hPa 0,3 l/m 0,2 km/h (0 Bft) W-NW 0,00 h 0,000 mm 0,0 UV-I 83 W/m 12,9 C 13,0 C 0,3 km/h (0 Bft) 0,00 %
05.09.2015 09:00 13,0 C 99 % 1014,7 hPa 2,4 l/m 0,1 km/h (0 Bft) N-NW 0,00 h 0,000 mm 0,0 UV-I 45 W/m 12,8 C 13,0 C 0,7 km/h (0 Bft) 0,00 %
05.09.2015 10:00 11,7 C 97 % 1015,3 hPa 3,0 l/m 2,2 km/h (1 Bft) NW 0,00 h 0,000 mm 1,0 UV-I 88 W/m 11,2 C 11,7 C 5,0 km/h (1 Bft) 0,00 %
05.09.2015 11:00 11,2 C 95 % 1015,3 hPa 0,3 l/m 3,0 km/h (1 Bft) SW 0,00 h 0,000 mm 1,0 UV-I 169 W/m 10,3 C 11,2 C 6,3 km/h (2 Bft) 0,00 %
05.09.2015 12:00 11,7 C 86 % 1015,2 hPa 0,0 l/m 3,6 km/h (1 Bft) SW 0,00 h 0,000 mm 1,0 UV-I 233 W/m 9,5 C 11,2 C 6,9 km/h (2 Bft) 0,00 %
05.09.2015 13:00 12,6 C 82 % 1015,0 hPa 0,0 l/m 2,3 km/h (1 Bft) NO 0,00 h 0,000 mm 1,2 UV-I 270 W/m 9,5 C 12,6 C 5,3 km/h (1 Bft) 0,00 %
05.09.2015 14:00 13,4 C 75 % 1015,1 hPa 0,0 l/m 2,7 km/h (1 Bft) W-SW 0,00 h 0,000 mm 1,0 UV-I 216 W/m 9,1 C 13,2 C 5,6 km/h (1 Bft) 0,00 %
05.09.2015 15:00 13,5 C 76 % 1014,9 hPa 0,0 l/m 2,3 km/h (1 Bft) NO 0,00 h 0,000 mm 1,0 UV-I 195 W/m 9,3 C 13,5 C 5,3 km/h (1 Bft) 0,00 %
05.09.2015 16:00 13,6 C 74 % 1014,8 hPa 0,0 l/m 2,5 km/h (1 Bft) O-SO 0,00 h 0,000 mm 1,0 UV-I 160 W/m 9,1 C 13,4 C 5,6 km/h (1 Bft) 0,00 %
05.09.2015 17:00 13,2 C 73 % 1014,9 hPa 0,0 l/m 2,6 km/h (1 Bft) O-NO 0,00 h 0,000 mm 1,0 UV-I 110 W/m 8,4 C 13,1 C 6,3 km/h (2 Bft) 0,00 %
05.09.2015 18:00 12,6 C 74 % 1015,3 hPa 0,0 l/m 2,5 km/h (1 Bft) W 0,00 h 0,000 mm 0,0 UV-I 37 W/m 8,1 C 12,6 C 7,0 km/h (2 Bft) 0,00 %
05.09.2015 19:00 11,6 C 75 % 1015,5 hPa 0,0 l/m 1,2 km/h (1 Bft) N-NO 0,00 h 0,000 mm 0,0 UV-I 5 W/m 7,4 C 11,6 C 3,3 km/h (1 Bft) 0,00 %
05.09.2015 20:00 11,0 C 77 % 1015,8 hPa 0,0 l/m 0,4 km/h (0 Bft) O-NO 0,00 h 0,000 mm 0,0 UV-I 0 W/m 7,2 C 11,0 C 1,7 km/h (1 Bft) 0,00 %
05.09.2015 21:00 11,4 C 75 % 1015,9 hPa 0,0 l/m 0,3 km/h (0 Bft) W-NW 0,00 h 0,000 mm 0,0 UV-I 0 W/m 7,2 C 11,4 C 1,7 km/h (1 Bft) 0,00 %
05.09.2015 22:00 11,3 C 78 % 1016,1 hPa 0,0 l/m 1,1 km/h (0 Bft) O 0,00 h 0,000 mm 0,0 UV-I 0 W/m 7,5 C 11,3 C 4,0 km/h (1 Bft) 0,00 %
05.09.2015 23:00 11,3 C 76 % 1016,4 hPa 0,0 l/m 1,5 km/h (1 Bft) NW 0,00 h 0,000 mm 0,0 UV-I 0 W/m 7,3 C 11,3 C 4,3 km/h (1 Bft) 0,00 %
06.09.2015 00:00 11,5 C 75 % 1016,5 hPa 0,0 l/m 2,3 km/h (1 Bft) SW 0,00 h 0,000 mm 0,0 UV-I 0 W/m 7,3 C 11,4 C 5,3 km/h (1 Bft) 0,00 %
06.09.2015 01:00 11,5 C 77 % 1016,6 hPa 0,0 l/m 2,3 km/h (1 Bft) W-SW 0,00 h 0,000 mm 0,0 UV-I 0 W/m 7,5 C 11,1 C 4,0 km/h (1 Bft) 0,00 %
06.09.2015 02:00 11,3 C 78 % 1016,6 hPa 0,0 l/m 1,8 km/h (1 Bft) O 0,00 h 0,000 mm 0,0 UV-I 0 W/m 7,6 C 11,3 C 4,3 km/h (1 Bft) 0,00 %
06.09.2015 03:00 11,1 C 80 % 1016,8 hPa 0,0 l/m 2,3 km/h (1 Bft) W-NW 0,00 h 0,000 mm 0,0 UV-I 0 W/m 7,8 C 11,0 C 5,6 km/h (1 Bft) 0,00 %
06.09.2015 04:00 10,2 C 88 % 1017,0 hPa 0,6 l/m 2,5 km/h (1 Bft) W-SW 0,00 h 0,000 mm 0,0 UV-I 0 W/m 8,2 C 10,1 C 5,0 km/h (1 Bft) 0,00 %
06.09.2015 05:00 9,6 C 93 % 1016,8 hPa 0,3 l/m 1,8 km/h (1 Bft) W-SW 0,00 h 0,000 mm 0,0 UV-I 0 W/m 8,5 C 9,6 C 4,3 km/h (1 Bft) 0,00 %
06.09.2015 06:00 9,7 C 93 % 1017,0 hPa 0,0 l/m 1,9 km/h (1 Bft) S 0,00 h 0,000 mm 0,0 UV-I 8 W/m 8,6 C 9,7 C 5,3 km/h (1 Bft) 0,00 %
06.09.2015 07:00 9,9 C 88 % 1017,7 hPa 0,0 l/m 2,4 km/h (1 Bft) W-NW 0,00 h 0,000 mm 0,0 UV-I 19 W/m 7,9 C 9,9 C 5,0 km/h (1 Bft) 0,00 %
06.09.2015 08:00 8,7 C 93 % 1018,7 hPa 0,9 l/m 1,2 km/h (1 Bft) NW 0,00 h 0,000 mm 1,0 UV-I 54 W/m 7,6 C 8,7 C 3,6 km/h (1 Bft) 0,00 %
06.09.2015 09:00 9,2 C 93 % 1019,3 hPa 0,0 l/m 1,7 km/h (1 Bft) S 0,00 h 0,000 mm 1,0 UV-I 152 W/m 8,2 C 8,9 C 3,3 km/h (1 Bft) 0,00 %
06.09.2015 10:00 9,9 C 88 % 1020,3 hPa 0,3 l/m 1,1 km/h (1 Bft) NO 0,00 h 0,000 mm 1,1 UV-I 218 W/m 8,0 C 9,9 C 3,3 km/h (1 Bft) 0,00 %
06.09.2015 11:00 10,6 C 80 % 1020,9 hPa 0,0 l/m 3,8 km/h (1 Bft) W-SW 0,00 h 0,000 mm 1,0 UV-I 239 W/m 7,4 C 10,5 C 7,0 km/h (2 Bft) 0,00 %
06.09.2015 12:00 10,9 C 78 % 1021,3 hPa 0,0 l/m 3,4 km/h (1 Bft) O 0,33 h 0,000 mm 1,6 UV-I 328 W/m 7,2 C 10,6 C 6,3 km/h (2 Bft) 0,00 %
06.09.2015 13:00 11,8 C 71 % 1021,2 hPa 0,0 l/m 7,4 km/h (2 Bft) W-SW 0,33 h 0,000 mm 1,6 UV-I 411 W/m 6,6 C 10,6 C 12,9 km/h (3 Bft) 0,00 %
06.09.2015 14:00 13,0 C 66 % 1021,5 hPa 0,0 l/m 5,6 km/h (1 Bft) W-SW 0,25 h 0,000 mm 1,5 UV-I 344 W/m 6,8 C 12,2 C 9,9 km/h (2 Bft) 0,00 %
06.09.2015 15:00 13,1 C 65 % 1021,5 hPa 0,0 l/m 9,3 km/h (2 Bft) W-SW 0,42 h 0,000 mm 1,0 UV-I 354 W/m 6,5 C 11,2 C 13,3 km/h (3 Bft) 0,00 %
06.09.2015 16:00 13,7 C 59 % 1021,4 hPa 0,0 l/m 7,5 km/h (2 Bft) W 0,17 h 0,000 mm 1,0 UV-I 189 W/m 5,9 C 12,4 C 11,9 km/h (2 Bft) 0,00 %
06.09.2015 17:00 13,2 C 61 % 1021,7 hPa 0,0 l/m 5,6 km/h (1 Bft) W-SW 0,33 h 0,000 mm 1,0 UV-I 212 W/m 5,9 C 12,3 C 9,3 km/h (2 Bft) 0,00 %
06.09.2015 18:00 12,8 C 62 % 1022,0 hPa 0,0 l/m 5,5 km/h (1 Bft) W-SW 0,67 h 0,000 mm 1,0 UV-I 225 W/m 5,8 C 12,4 C 9,9 km/h (2 Bft) 0,00 %
06.09.2015 19:00 11,6 C 66 % 1022,4 hPa 0,0 l/m 3,5 km/h (1 Bft) W-SW 0,33 h 0,000 mm 0,0 UV-I 26 W/m 5,4 C 11,2 C 6,0 km/h (2 Bft) 0,00 %
06.09.2015 20:00 10,8 C 70 % 1023,1 hPa 0,0 l/m 1,1 km/h (1 Bft) N 0,00 h 0,000 mm 0,0 UV-I 0 W/m 5,5 C 10,8 C 3,3 km/h (1 Bft) 0,00 %
06.09.2015 21:00 10,6 C 71 % 1023,6 hPa 0,0 l/m 0,7 km/h (0 Bft) S-SW 0,00 h 0,000 mm 0,0 UV-I 0 W/m 5,6 C 10,6 C 2,2 km/h (1 Bft) 0,00 %
06.09.2015 22:00 10,6 C 71 % 1023,9 hPa 0,0 l/m 0,9 km/h (0 Bft) N-NW 0,00 h 0,000 mm 0,0 UV-I 0 W/m 5,6 C 10,6 C 3,3 km/h (1 Bft) 0,00 %
06.09.2015 23:00 10,6 C 72 % 1024,0 hPa 0,0 l/m 1,8 km/h (1 Bft) SW 0,00 h 0,000 mm 0,0 UV-I 0 W/m 5,7 C 10,6 C 4,0 km/h (1 Bft) 0,00 %
Min-Datum _ 06.09.15 31.08.15 01.09.15 - 31.08.15 - - - - - 06.09.15 06.09.15 31.08.15 31.08.15
_ Min-Zeit 08:54 16:31 17:42 - 00:00 - - - - - 19:39 09:19 00:00 00:00
Minimum _ 8,4 C 21 % 1004,5 hPa - 0,0 km/h (0 Bft) - - - - - 5,0 C 5,6 C 0,0 km/h (0 Bft) 0,00 %
Max-Datum _ 31.08.15 02.09.15 06.09.15 02.09.15 01.09.15 - 31.08.15 31.08.15 04.09.15 04.09.15 31.08.15 31.08.15 01.09.15 31.08.15
_ Max-Zeit 15:16 19:19 23:30 18:09 19:57 - 14:16 00:00 13:16 15:16 16:51 15:16 19:57 00:00
Maximum _ 35,5 C 99 % 1024,2 hPa 7,5 l/m 33,1 km/h
W (5 Bft)
- 0,10 h 0,000 mm 4,0 UV-I 1044 W/m 18,3 C 35,5 C 40,0 km/h
W (6 Bft)
0,00 %
Durchschnitt _ 17,4 C 75 % 1014,6 hPa #51,0 l/m 1,3 km/h (1 Bft) W-SW #29:57 h #0,000 mm 1,4 UV-I 260 W/m 11,8 C 17,3 C 2,6 km/h (1 Bft) 0,00 %